createdAt,value
2022-09-14T00:01:36.911Z,1.50
2022-09-14T00:09:53.530Z,1.10
2022-09-14T00:11:51.198Z,1.20
2022-09-14T00:14:23.023Z,1.10
2022-09-14T00:18:00.855Z,1.30
2022-09-14T00:19:29.836Z,1.30
2022-09-14T00:25:05.324Z,1.40
2022-09-14T00:26:32.573Z,1.30
2022-09-14T00:28:53.174Z,1.10
2022-09-14T00:31:40.857Z,1.30
2022-09-14T00:40:36.262Z,1.60
2022-09-14T00:45:14.651Z,1.50
2022-09-14T00:46:41.892Z,2.00
2022-09-14T00:48:14.249Z,1.50
2022-09-14T00:50:52.404Z,1.60
2022-09-14T00:52:21.864Z,1.50
2022-09-14T00:54:22.210Z,1.50
2022-09-14T01:03:35.078Z,1.50
2022-09-14T01:07:17.696Z,1.30
2022-09-14T01:10:34.772Z,1.70
2022-09-14T01:15:55.239Z,1.40
2022-09-14T01:20:20.606Z,1.40
2022-09-14T01:23:10.425Z,1.40
2022-09-14T01:28:05.247Z,2.10
2022-09-14T01:31:09.845Z,1.50
2022-09-14T01:32:38.701Z,1.60
2022-09-14T01:35:08.604Z,1.30
2022-09-14T01:36:37.596Z,1.70
2022-09-14T01:39:41.661Z,1.50
2022-09-14T01:42:49.897Z,1.40
2022-09-14T01:48:01.529Z,1.30
2022-09-14T01:51:18.114Z,1.20
2022-09-14T01:54:06.722Z,1.60
2022-09-14T02:04:23.755Z,1.70
2022-09-14T02:09:58.713Z,1.50
2022-09-14T02:14:43.027Z,1.70
2022-09-14T02:19:08.594Z,1.40
2022-09-14T02:42:42.848Z,1.50
2022-09-14T02:46:29.498Z,1.70
2022-09-14T02:55:16.011Z,1.60
2022-09-14T02:57:35.631Z,1.80
2022-09-14T03:01:45.038Z,1.90
2022-09-14T03:04:26.833Z,1.50
2022-09-14T03:06:57.241Z,1.80
2022-09-14T03:09:09.821Z,1.60
2022-09-14T03:11:09.310Z,1.80
2022-09-14T03:12:37.430Z,1.80
2022-09-14T03:15:00.030Z,1.30
2022-09-14T03:16:28.881Z,2.30
2022-09-14T03:18:00.658Z,1.70
2022-09-14T03:20:10.354Z,1.80
2022-09-14T03:22:01.750Z,1.80
2022-09-14T03:24:20.971Z,1.60
2022-09-14T03:29:03.908Z,2.20
2022-09-14T03:33:12.587Z,1.90
2022-09-14T03:36:19.894Z,1.70
2022-09-14T03:38:46.017Z,2.30
2022-09-14T03:41:39.341Z,2.30
2022-09-14T03:43:12.424Z,2.60
2022-09-14T03:46:05.288Z,2.10
2022-09-14T03:52:32.428Z,3.10
2022-09-14T03:54:31.692Z,2.60
2022-09-14T03:57:55.148Z,2.80
2022-09-14T03:59:53.266Z,3.90
2022-09-14T04:01:27.100Z,3.30
2022-09-14T04:06:41.755Z,3.90
2022-09-14T04:09:22.178Z,3.80
2022-09-14T04:11:51.148Z,3.90
2022-09-14T04:15:38.850Z,4.10
2022-09-14T04:17:09.046Z,3.00
2022-09-14T04:18:59.978Z,3.70
2022-09-14T04:21:21.622Z,4.20
2022-09-14T04:24:10.127Z,3.30
2022-09-14T04:25:19.363Z,3.40
2022-09-14T04:27:21.389Z,3.60
2022-09-14T04:28:54.259Z,3.60
2022-09-14T04:31:13.759Z,3.70
2022-09-14T04:32:44.940Z,3.50
2022-09-14T04:34:49.148Z,3.20
2022-09-14T04:42:14.255Z,3.80
2022-09-14T04:45:08.602Z,3.30
2022-09-14T04:48:28.801Z,3.30
2022-09-14T04:50:20.450Z,3.70
2022-09-14T04:54:53.710Z,3.90
2022-09-14T04:57:26.849Z,3.20
2022-09-14T04:59:24.531Z,3.40
2022-09-14T05:01:24.113Z,3.30
2022-09-14T05:03:43.998Z,3.70
2022-09-14T05:11:18.673Z,3.40
2022-09-14T05:14:08.932Z,3.80
2022-09-14T05:18:49.232Z,3.50
2022-09-14T05:20:45.456Z,4.30
2022-09-14T05:22:15.255Z,3.20
2022-09-14T05:26:13.322Z,3.70
2022-09-14T05:30:19.486Z,4.00
2022-09-14T05:36:02.850Z,4.20
2022-09-14T05:40:07.838Z,3.70
2022-09-14T05:41:35.776Z,3.90
2022-09-14T05:43:18.576Z,3.80
2022-09-14T05:45:39.712Z,3.40
2022-09-14T05:50:03.032Z,4.10
2022-09-14T05:52:07.370Z,3.30
2022-09-14T05:56:26.525Z,3.10
2022-09-14T05:59:08.662Z,3.10
2022-09-14T06:01:21.200Z,2.80
2022-09-14T06:05:40.082Z,2.60
2022-09-14T06:07:35.813Z,2.10
2022-09-14T06:10:46.653Z,2.20
2022-09-14T06:12:18.160Z,1.80
2022-09-14T06:15:07.956Z,1.90
2022-09-14T06:18:03.393Z,2.10
2022-09-14T06:24:35.844Z,1.80
2022-09-14T06:31:03.000Z,2.10
2022-09-14T06:33:12.825Z,1.90
2022-09-14T06:36:44.341Z,1.90
2022-09-14T06:39:13.627Z,1.80
2022-09-14T06:42:25.807Z,1.80
2022-09-14T06:45:02.273Z,1.90
2022-09-14T06:49:52.897Z,1.30
2022-09-14T06:52:53.396Z,2.00
2022-09-14T06:54:43.221Z,1.60
2022-09-14T07:00:08.239Z,1.70
2022-09-14T07:03:15.830Z,1.70
2022-09-14T07:06:58.167Z,1.70
2022-09-14T07:08:26.263Z,1.20
2022-09-14T07:10:00.035Z,1.20
2022-09-14T07:11:46.101Z,1.50
2022-09-14T07:14:32.062Z,1.40
2022-09-14T07:20:18.567Z,1.60
2022-09-14T07:25:28.185Z,1.80
2022-09-14T07:27:04.935Z,2.10
2022-09-14T07:29:34.003Z,1.60
2022-09-14T07:31:05.631Z,1.50
2022-09-14T07:32:53.849Z,2.20
2022-09-14T07:35:13.853Z,1.50
2022-09-14T07:38:03.193Z,1.80
2022-09-14T07:44:04.783Z,1.60
2022-09-14T07:48:47.063Z,1.30
2022-09-14T07:51:09.634Z,2.60
2022-09-14T07:53:29.581Z,2.10
2022-09-14T07:54:59.749Z,2.60
2022-09-14T07:59:34.293Z,3.10
2022-09-14T08:00:42.619Z,1.30
2022-09-14T08:02:44.345Z,2.00
2022-09-14T08:05:18.707Z,2.60
2022-09-14T08:07:53.834Z,2.40
2022-09-14T08:12:47.263Z,2.20
2022-09-14T08:15:07.374Z,3.00
2022-09-14T08:19:06.101Z,1.90
2022-09-14T08:27:25.258Z,1.90
2022-09-14T08:29:49.304Z,2.00
2022-09-14T08:33:13.617Z,2.30
2022-09-14T08:38:43.356Z,2.10
2022-09-14T08:40:42.901Z,2.20
2022-09-14T08:42:13.682Z,1.60
2022-09-14T08:43:45.521Z,1.80
2022-09-14T08:45:15.741Z,1.70
2022-09-14T08:50:38.869Z,1.80
2022-09-14T08:52:05.050Z,2.30
2022-09-14T08:53:54.796Z,1.90
2022-09-14T08:55:53.791Z,1.70
2022-09-14T08:57:25.024Z,2.00
2022-09-14T08:59:47.470Z,1.80
2022-09-14T09:02:14.196Z,3.10
2022-09-14T09:04:52.896Z,2.50
2022-09-14T09:11:21.268Z,1.90
2022-09-14T09:12:52.431Z,2.30
2022-09-14T09:14:37.795Z,1.60
2022-09-14T09:16:08.966Z,1.70
2022-09-14T09:18:25.461Z,1.60
2022-09-14T09:22:07.876Z,2.20
2022-09-14T09:27:21.696Z,3.10
2022-09-14T09:32:21.114Z,2.20
2022-09-14T09:35:08.634Z,1.80
2022-09-14T09:37:17.435Z,2.30
2022-09-14T09:40:12.219Z,2.60
2022-09-14T09:41:42.045Z,3.00
2022-09-14T09:44:43.382Z,2.50
2022-09-14T09:47:42.884Z,2.80
2022-09-14T09:50:03.454Z,3.10
2022-09-14T09:53:51.886Z,3.40
2022-09-14T09:59:02.403Z,3.90
2022-09-14T10:01:23.832Z,4.40
2022-09-14T10:03:18.281Z,4.50
2022-09-14T10:06:52.835Z,4.40
2022-09-14T10:08:52.936Z,4.50
2022-09-14T10:13:17.266Z,4.00
2022-09-14T10:14:47.347Z,4.00
2022-09-14T10:19:26.082Z,3.60
2022-09-14T10:20:58.444Z,3.50
2022-09-14T10:22:59.516Z,3.30
2022-09-14T10:24:29.727Z,3.00
2022-09-14T10:26:30.396Z,3.50
2022-09-14T10:29:28.125Z,3.70
2022-09-14T10:31:47.066Z,2.90
2022-09-14T10:34:45.424Z,4.50
2022-09-14T10:37:37.045Z,3.40
2022-09-14T10:39:29.708Z,2.80
2022-09-14T10:40:58.038Z,2.90
2022-09-14T10:44:33.495Z,3.60
2022-09-14T10:46:31.921Z,3.70
2022-09-14T10:50:47.538Z,3.00
2022-09-14T10:55:16.456Z,2.40
2022-09-14T10:57:36.429Z,3.10
2022-09-14T11:04:57.500Z,2.30
2022-09-14T11:07:06.321Z,2.20
2022-09-14T11:08:40.692Z,1.60
2022-09-14T11:13:05.774Z,2.20
2022-09-14T11:14:33.359Z,1.90
2022-09-14T11:16:45.517Z,1.60
2022-09-14T11:18:13.694Z,1.60
2022-09-14T11:19:52.343Z,1.20
2022-09-14T11:21:40.856Z,1.10
2022-09-14T11:23:10.425Z,1.40
2022-09-14T11:25:49.840Z,2.10
2022-09-14T11:27:22.600Z,1.00
2022-09-14T11:29:39.648Z,1.50
2022-09-14T11:31:19.456Z,1.60
2022-09-14T11:33:05.424Z,1.10
2022-09-14T11:35:37.124Z,1.50
2022-09-14T11:39:30.532Z,1.20
2022-09-14T11:41:46.779Z,1.30
2022-09-14T11:44:57.543Z,1.40
2022-09-14T11:46:48.133Z,1.00
2022-09-14T11:49:39.317Z,1.10
2022-09-14T11:51:56.015Z,1.20
2022-09-14T11:53:46.725Z,1.00
2022-09-14T11:55:53.263Z,0.90
2022-09-14T12:00:14.952Z,1.40
2022-09-14T12:05:02.480Z,1.20
2022-09-14T12:06:31.193Z,1.30
2022-09-14T12:24:14.542Z,0.90
2022-09-14T12:27:33.361Z,1.00
2022-09-14T12:29:52.494Z,1.40
2022-09-14T12:33:43.981Z,1.40
2022-09-14T12:36:08.678Z,1.10
2022-09-14T12:38:01.460Z,1.10
2022-09-14T12:39:33.132Z,1.30
2022-09-14T12:44:15.257Z,1.50
2022-09-14T12:49:28.208Z,1.60
2022-09-14T12:50:58.194Z,1.50
2022-09-14T12:53:17.136Z,1.30
2022-09-14T12:54:51.095Z,1.70
2022-09-14T12:56:16.760Z,1.20
2022-09-14T12:58:29.598Z,1.40
2022-09-14T13:00:16.104Z,1.10
2022-09-14T13:02:21.010Z,1.30
2022-09-14T13:03:53.564Z,1.50
2022-09-14T13:06:21.026Z,1.20
2022-09-14T13:08:20.055Z,1.50
2022-09-14T13:10:39.636Z,1.10
2022-09-14T13:13:40.594Z,1.60
2022-09-14T13:15:59.507Z,1.50
2022-09-14T13:17:43.976Z,1.80
2022-09-14T13:20:11.899Z,1.90
2022-09-14T13:22:09.843Z,1.80
2022-09-14T13:24:38.503Z,1.50
2022-09-14T13:26:08.364Z,1.50
2022-09-14T13:27:37.245Z,1.00
2022-09-14T13:29:06.209Z,1.40
2022-09-14T13:31:05.270Z,1.10
2022-09-14T13:33:24.245Z,1.30
2022-09-14T13:34:53.124Z,1.10
2022-09-14T13:36:23.119Z,3.20
2022-09-14T13:38:50.934Z,1.50
2022-09-14T13:41:19.157Z,2.20
2022-09-14T13:42:49.053Z,1.60
2022-09-14T13:45:19.558Z,1.50
2022-09-14T13:47:11.474Z,2.00
2022-09-14T13:48:18.391Z,1.60
2022-09-14T13:51:07.928Z,1.20
2022-09-14T13:53:05.381Z,1.60
2022-09-14T13:55:24.506Z,1.40
2022-09-14T13:56:53.697Z,2.40
2022-09-14T13:59:24.392Z,1.40
2022-09-14T14:00:51.327Z,1.60
2022-09-14T14:03:13.144Z,1.80
2022-09-14T14:04:42.088Z,1.90
2022-09-14T14:06:11.154Z,1.40
2022-09-14T14:09:58.479Z,1.80
2022-09-14T14:11:27.426Z,1.50
2022-09-14T14:16:14.184Z,1.60
2022-09-14T14:18:31.609Z,1.80
2022-09-14T14:20:30.500Z,1.80
2022-09-14T14:22:59.799Z,1.40
2022-09-14T14:24:28.785Z,1.90
2022-09-14T14:25:57.751Z,1.50
2022-09-14T14:28:26.525Z,1.50
2022-09-14T14:30:55.589Z,1.80
2022-09-14T14:33:54.427Z,1.70
2022-09-14T14:36:23.702Z,1.70
2022-09-14T14:39:45.327Z,1.40
2022-09-14T14:41:12.997Z,1.20
2022-09-14T14:42:41.940Z,2.10
2022-09-14T14:44:11.738Z,3.50
2022-09-14T14:45:40.885Z,2.30
2022-09-14T14:47:10.882Z,1.90
2022-09-14T14:48:40.098Z,1.60
2022-09-14T14:50:28.942Z,1.20
2022-09-14T14:52:28.831Z,1.50
2022-09-14T14:55:26.534Z,1.50
2022-09-14T14:57:53.722Z,1.50
2022-09-14T14:59:52.598Z,1.90
2022-09-14T15:01:21.565Z,1.70
2022-09-14T15:10:06.132Z,1.80
2022-09-14T15:14:02.381Z,1.50
2022-09-14T15:15:32.389Z,1.50
2022-09-14T15:17:04.099Z,1.30
2022-09-14T15:20:21.504Z,1.40
2022-09-14T15:21:50.494Z,1.60
2022-09-14T15:23:19.375Z,1.40
2022-09-14T15:25:18.171Z,1.80
2022-09-14T15:29:13.018Z,2.00
2022-09-14T15:30:43.796Z,1.50
2022-09-14T15:33:40.343Z,1.30
2022-09-14T15:37:39.032Z,2.10
2022-09-14T15:39:40.073Z,1.40
2022-09-14T15:41:09.200Z,1.70
2022-09-14T15:43:26.963Z,1.40
2022-09-14T15:48:53.528Z,1.60
2022-09-14T15:50:51.355Z,1.60
2022-09-14T15:52:43.554Z,1.80
2022-09-14T15:55:10.327Z,1.70
2022-09-14T15:57:10.198Z,1.60
2022-09-14T15:59:14.270Z,1.60
2022-09-14T16:01:42.695Z,1.80
2022-09-14T16:03:41.086Z,2.30
2022-09-14T16:07:05.864Z,2.10
2022-09-14T16:09:04.631Z,1.30
2022-09-14T16:10:33.493Z,1.40
2022-09-14T16:12:03.966Z,1.10
2022-09-14T16:19:57.018Z,1.20
2022-09-14T16:22:44.902Z,1.90
2022-09-14T16:24:13.853Z,1.60
2022-09-14T16:27:12.066Z,1.90
2022-09-14T16:29:09.472Z,1.50
2022-09-14T16:30:38.435Z,1.30
2022-09-14T16:35:08.401Z,2.20
2022-09-14T16:37:33.900Z,1.40
2022-09-14T16:39:22.582Z,1.40
2022-09-14T16:40:52.589Z,1.60
2022-09-14T16:42:21.478Z,1.80
2022-09-14T16:44:01.513Z,1.30
2022-09-14T16:45:30.470Z,1.60
2022-09-14T16:47:58.655Z,1.20
2022-09-14T16:49:30.564Z,1.30
2022-09-14T16:50:57.412Z,1.60
2022-09-14T16:52:27.301Z,1.20
2022-09-14T16:53:57.335Z,1.60
2022-09-14T16:55:27.209Z,1.60
2022-09-14T16:57:46.812Z,1.90
2022-09-14T16:59:16.762Z,1.50
2022-09-14T17:02:12.592Z,1.30
2022-09-14T17:04:11.904Z,1.40
2022-09-14T17:06:10.445Z,1.70
2022-09-14T17:08:10.955Z,1.90
2022-09-14T17:10:40.064Z,1.80
2022-09-14T17:13:24.158Z,2.20
2022-09-14T17:14:38.383Z,2.10
2022-09-14T17:18:41.350Z,1.70
2022-09-14T17:23:54.223Z,2.20
2022-09-14T17:26:49.735Z,1.40
2022-09-14T17:29:08.161Z,1.30
2022-09-14T17:30:57.976Z,1.70
2022-09-14T17:33:18.646Z,1.50
2022-09-14T17:36:45.794Z,1.30
2022-09-14T17:41:58.095Z,1.60
2022-09-14T17:45:17.644Z,1.80
2022-09-14T17:48:07.091Z,2.30
2022-09-14T17:49:37.875Z,2.70
2022-09-14T17:51:05.984Z,2.30
2022-09-14T17:52:35.408Z,2.50
2022-09-14T17:54:04.953Z,2.00
2022-09-14T17:56:45.304Z,2.10
2022-09-14T17:58:42.818Z,1.60
2022-09-14T18:00:43.405Z,1.60
2022-09-14T18:02:33.471Z,2.00
2022-09-14T18:04:56.541Z,1.60
2022-09-14T18:10:59.862Z,2.40
2022-09-14T18:15:06.362Z,3.00
2022-09-14T18:17:27.525Z,3.40
2022-09-14T18:20:19.874Z,3.60
2022-09-14T18:21:52.884Z,4.10
2022-09-14T18:23:19.579Z,3.80
2022-09-14T18:25:00.472Z,4.00
2022-09-14T18:26:43.304Z,4.40
2022-09-14T18:29:17.030Z,4.20
2022-09-14T18:30:46.347Z,4.40
2022-09-14T18:32:57.930Z,4.70
2022-09-14T18:36:37.677Z,4.50
2022-09-14T18:43:29.229Z,4.80
2022-09-14T18:47:24.831Z,5.20
2022-09-14T18:50:08.425Z,5.70
2022-09-14T18:52:13.358Z,5.60
2022-09-14T18:56:19.514Z,6.20
2022-09-14T18:58:04.762Z,6.20
2022-09-14T19:01:27.826Z,5.90
2022-09-14T19:03:49.836Z,6.50
2022-09-14T19:11:13.215Z,6.00
2022-09-14T19:12:43.180Z,7.00
2022-09-14T19:15:16.079Z,6.40
2022-09-14T19:17:04.468Z,6.30
2022-09-14T19:18:55.080Z,6.30
2022-09-14T19:21:23.883Z,6.40
2022-09-14T19:23:58.276Z,7.40
2022-09-14T19:28:29.614Z,6.90
2022-09-14T19:32:56.540Z,8.50
2022-09-14T19:34:45.170Z,7.60
2022-09-14T19:36:35.490Z,7.40
2022-09-14T19:46:41.363Z,8.40
2022-09-14T19:49:52.530Z,8.00
2022-09-14T19:57:15.669Z,9.60
2022-09-14T19:59:19.928Z,8.10
2022-09-14T20:01:24.874Z,8.90
2022-09-14T20:04:14.589Z,8.60
2022-09-14T20:05:46.380Z,7.40
2022-09-14T20:09:07.469Z,8.10
2022-09-14T20:12:17.269Z,7.20
2022-09-14T20:14:18.658Z,7.50
2022-09-14T20:15:56.180Z,7.90
2022-09-14T20:19:52.933Z,7.30
2022-09-14T20:21:25.166Z,6.70
2022-09-14T20:24:27.113Z,6.50
2022-09-14T20:30:35.302Z,6.20
2022-09-14T20:43:59.637Z,5.30
2022-09-14T20:45:43.358Z,5.00
2022-09-14T20:51:26.743Z,4.00
2022-09-14T20:53:13.142Z,3.60
2022-09-14T20:55:05.695Z,3.70
2022-09-14T21:00:21.336Z,3.70
2022-09-14T21:04:39.783Z,3.30
2022-09-14T21:07:34.315Z,2.60
2022-09-14T21:10:01.620Z,3.00
2022-09-14T21:13:38.718Z,4.60
2022-09-14T21:15:30.444Z,7.10
2022-09-14T21:20:31.646Z,2.70
2022-09-14T21:23:13.502Z,2.90
2022-09-14T21:26:15.783Z,1.70
2022-09-14T21:30:55.698Z,1.60
2022-09-14T21:33:11.934Z,1.50
2022-09-14T21:35:33.525Z,1.60
2022-09-14T21:43:24.391Z,1.60
2022-09-14T21:48:57.441Z,1.20
2022-09-14T21:52:38.898Z,1.20
2022-09-14T21:54:43.149Z,1.30
2022-09-14T21:56:13.730Z,1.30
2022-09-14T22:02:31.743Z,1.50
2022-09-14T22:03:58.964Z,2.20
2022-09-14T22:14:40.466Z,1.40
2022-09-14T22:17:07.240Z,1.30
2022-09-14T22:19:54.627Z,1.60
2022-09-14T22:26:10.964Z,1.20
2022-09-14T22:36:36.681Z,1.40
2022-09-14T22:38:07.147Z,2.60
2022-09-14T22:40:17.782Z,1.30
2022-09-14T22:41:54.038Z,1.40
2022-09-14T22:43:42.991Z,1.50
2022-09-14T22:45:14.633Z,1.60
2022-09-14T22:50:29.668Z,1.80
2022-09-14T22:53:48.673Z,1.70
2022-09-14T22:57:09.076Z,1.90
2022-09-14T22:59:21.059Z,1.80
2022-09-14T23:01:45.249Z,1.70
2022-09-14T23:03:47.907Z,1.80
2022-09-14T23:06:16.032Z,2.30
2022-09-14T23:08:07.055Z,2.20
2022-09-14T23:10:05.661Z,2.40
2022-09-14T23:12:50.071Z,2.30
2022-09-14T23:15:56.529Z,2.70
2022-09-14T23:19:09.619Z,2.40
2022-09-14T23:21:17.068Z,3.10
2022-09-14T23:25:19.566Z,3.00
2022-09-14T23:27:59.928Z,3.90
2022-09-14T23:31:26.121Z,3.50
2022-09-14T23:32:58.801Z,4.20
2022-09-14T23:34:34.198Z,3.30
2022-09-14T23:39:38.950Z,4.10
2022-09-14T23:47:36.859Z,3.30
2022-09-14T23:50:14.550Z,3.70
2022-09-14T23:55:25.153Z,3.10
